createdAt,value
2018-07-09T00:00:05.975Z,17.17
2018-07-09T00:02:34.213Z,18.30
2018-07-09T00:05:02.087Z,20.03
2018-07-09T00:07:29.974Z,13.13
2018-07-09T00:09:57.837Z,15.93
2018-07-09T00:12:25.672Z,12.63
2018-07-09T00:14:53.590Z,13.70
2018-07-09T00:17:21.497Z,11.83
2018-07-09T00:19:49.421Z,11.13
2018-07-09T00:22:17.285Z,10.93
2018-07-09T00:24:45.209Z,11.30
2018-07-09T00:27:13.078Z,10.80
2018-07-09T00:29:41.029Z,9.70
2018-07-09T00:32:09.005Z,10.90
2018-07-09T00:34:36.995Z,11.47
2018-07-09T00:37:04.989Z,10.60
2018-07-09T00:39:32.866Z,11.40
2018-07-09T00:42:01.282Z,12.13
2018-07-09T00:44:29.365Z,11.13
2018-07-09T00:46:57.293Z,10.47
2018-07-09T00:49:25.317Z,9.17
2018-07-09T00:51:53.410Z,9.60
2018-07-09T00:54:21.431Z,9.80
2018-07-09T00:56:49.938Z,8.93
2018-07-09T00:59:17.922Z,8.43
2018-07-09T01:01:46.134Z,11.07
2018-07-09T01:04:13.954Z,10.20
2018-07-09T01:06:41.892Z,12.07
2018-07-09T01:09:09.800Z,10.33
2018-07-09T01:11:44.738Z,7.90
2018-07-09T01:14:12.813Z,8.20
2018-07-09T01:16:40.733Z,9.73
2018-07-09T01:19:08.546Z,7.40
2018-07-09T01:21:36.442Z,6.47
2018-07-09T01:24:04.390Z,6.40
2018-07-09T01:26:32.282Z,6.53
2018-07-09T01:29:00.327Z,5.03
2018-07-09T01:31:28.181Z,5.70
2018-07-09T01:33:56.072Z,7.13
2018-07-09T01:36:24.378Z,6.03
2018-07-09T01:38:52.285Z,6.03
2018-07-09T01:41:20.140Z,6.67
2018-07-09T01:43:48.003Z,7.57
2018-07-09T01:46:15.822Z,7.00
2018-07-09T01:48:43.671Z,8.20
2018-07-09T01:51:11.538Z,8.17
2018-07-09T01:53:39.340Z,8.57
2018-07-09T01:56:07.193Z,9.90
2018-07-09T01:58:35.035Z,10.87
2018-07-09T02:01:02.931Z,11.53
2018-07-09T02:03:30.838Z,11.80
2018-07-09T02:05:58.706Z,13.27
2018-07-09T02:08:26.594Z,11.47
2018-07-09T02:10:54.433Z,11.70
2018-07-09T02:13:22.289Z,11.80
2018-07-09T02:15:50.135Z,10.57
2018-07-09T02:18:17.984Z,11.77
2018-07-09T02:20:45.838Z,12.83
2018-07-09T02:23:13.663Z,14.87
2018-07-09T02:25:41.509Z,13.57
2018-07-09T02:28:09.377Z,13.53
2018-07-09T02:30:37.222Z,13.57
2018-07-09T02:33:05.050Z,14.17
2018-07-09T02:35:32.871Z,13.33
2018-07-09T02:38:00.729Z,14.70
2018-07-09T02:40:28.562Z,14.97
2018-07-09T02:42:56.378Z,14.60
2018-07-09T02:45:24.193Z,15.10
2018-07-09T02:47:52.002Z,15.03
2018-07-09T02:50:19.845Z,15.93
2018-07-09T02:52:47.674Z,14.43
2018-07-09T02:55:15.562Z,15.00
2018-07-09T02:57:43.702Z,17.37
2018-07-09T03:00:11.601Z,15.20
2018-07-09T03:02:39.730Z,17.33
2018-07-09T03:05:07.585Z,18.33
2018-07-09T03:07:35.448Z,17.07
2018-07-09T03:10:03.399Z,17.17
2018-07-09T03:12:31.225Z,16.97
2018-07-09T03:14:59.058Z,15.63
2018-07-09T03:17:26.893Z,16.60
2018-07-09T03:19:54.717Z,14.53
2018-07-09T03:22:22.538Z,16.73
2018-07-09T03:24:50.368Z,16.30
2018-07-09T03:27:18.181Z,14.53
2018-07-09T03:29:46.022Z,17.00
2018-07-09T03:32:13.862Z,15.80
2018-07-09T03:34:41.667Z,14.33
2018-07-09T03:37:09.497Z,14.13
2018-07-09T03:39:37.312Z,12.83
2018-07-09T03:42:05.233Z,14.17
2018-07-09T03:44:33.046Z,14.80
2018-07-09T03:47:00.849Z,13.77
2018-07-09T03:49:28.712Z,16.37
2018-07-09T03:51:56.561Z,16.80
2018-07-09T03:54:24.375Z,16.80
2018-07-09T03:56:53.217Z,17.57
2018-07-09T03:59:21.029Z,17.00
2018-07-09T04:01:48.909Z,16.55
2018-07-09T04:04:16.734Z,16.90
2018-07-09T04:06:44.568Z,17.33
2018-07-09T04:09:12.396Z,19.17
2018-07-09T04:11:40.269Z,19.97
2018-07-09T04:14:08.189Z,18.77
2018-07-09T04:16:36.084Z,19.37
2018-07-09T04:19:03.953Z,20.20
2018-07-09T04:21:31.824Z,21.10
2018-07-09T04:23:59.654Z,20.20
2018-07-09T04:26:27.486Z,19.97
2018-07-09T04:28:55.326Z,20.60
2018-07-09T04:31:23.137Z,22.50
2018-07-09T04:33:50.984Z,22.57
2018-07-09T04:36:18.793Z,21.70
2018-07-09T04:38:46.600Z,21.37
2018-07-09T04:41:14.453Z,22.70
2018-07-09T04:43:42.280Z,21.53
2018-07-09T04:46:10.134Z,20.50
2018-07-09T04:48:37.956Z,21.77
2018-07-09T04:51:05.869Z,17.77
2018-07-09T04:53:33.727Z,18.33
2018-07-09T04:56:01.559Z,17.67
2018-07-09T04:58:29.389Z,20.03
2018-07-09T05:00:57.237Z,18.93
2018-07-09T05:03:25.086Z,19.13
2018-07-09T05:05:53.189Z,19.93
2018-07-09T05:08:21.094Z,18.33
2018-07-09T05:10:48.949Z,18.93
2018-07-09T05:13:16.770Z,20.20
2018-07-09T05:15:44.629Z,19.30
2018-07-09T05:18:12.461Z,17.73
2018-07-09T05:20:40.315Z,17.90
2018-07-09T05:23:08.225Z,17.37
2018-07-09T05:25:36.081Z,15.80
2018-07-09T05:28:03.963Z,14.13
2018-07-09T05:30:31.810Z,13.63
2018-07-09T05:32:59.661Z,13.77
2018-07-09T05:35:27.558Z,14.27
2018-07-09T05:37:55.694Z,13.73
2018-07-09T05:40:23.635Z,13.50
2018-07-09T05:42:51.611Z,13.57
2018-07-09T05:45:19.494Z,15.83
2018-07-09T05:47:47.490Z,16.27
2018-07-09T05:50:15.509Z,12.97
2018-07-09T05:52:43.405Z,14.05
2018-07-09T05:55:11.763Z,15.23
2018-07-09T05:57:39.602Z,14.70
2018-07-09T06:00:07.522Z,16.60
2018-07-09T06:02:35.389Z,14.37
2018-07-09T06:05:03.281Z,14.17
2018-07-09T06:07:31.131Z,14.60
2018-07-09T06:09:58.953Z,15.63
2018-07-09T06:12:26.793Z,15.00
2018-07-09T06:14:54.654Z,15.03
2018-07-09T06:17:22.469Z,14.80
2018-07-09T06:19:50.295Z,16.03
2018-07-09T06:22:18.125Z,15.73
2018-07-09T06:24:46.013Z,17.07
2018-07-09T06:27:13.904Z,18.60
2018-07-09T06:29:41.813Z,16.70
2018-07-09T06:32:09.763Z,17.03
2018-07-09T06:34:37.623Z,19.10
2018-07-09T06:37:05.594Z,17.40
2018-07-09T06:39:33.517Z,11.80
2018-07-09T06:42:01.393Z,10.87
2018-07-09T06:44:29.324Z,12.13
2018-07-09T06:46:57.188Z,9.53
2018-07-09T06:49:25.054Z,8.90
2018-07-09T06:51:52.918Z,9.30
2018-07-09T06:54:20.755Z,9.10
2018-07-09T06:56:48.711Z,9.40
2018-07-09T06:59:16.583Z,8.83
2018-07-09T07:01:44.482Z,9.07
2018-07-09T07:04:12.365Z,9.87
2018-07-09T07:06:40.423Z,8.60
2018-07-09T07:09:08.480Z,8.30
2018-07-09T07:11:36.390Z,8.10
2018-07-09T07:14:04.465Z,8.03
2018-07-09T07:16:32.499Z,6.50
2018-07-09T07:19:00.326Z,5.90
2018-07-09T07:21:28.473Z,6.20
2018-07-09T07:23:56.321Z,7.60
2018-07-09T07:26:24.411Z,6.47
2018-07-09T07:28:52.360Z,7.40
2018-07-09T07:31:20.293Z,3.50
2018-07-09T07:33:48.461Z,3.43
2018-07-09T07:36:16.484Z,3.23
2018-07-09T07:38:44.659Z,2.90
2018-07-09T07:41:12.483Z,3.40
2018-07-09T07:43:40.357Z,3.20
2018-07-09T07:46:08.527Z,3.50
2018-07-09T07:48:36.378Z,3.60
2018-07-09T07:51:04.217Z,3.80
2018-07-09T07:53:32.041Z,4.73
2018-07-09T07:55:59.870Z,4.20
2018-07-09T07:58:27.757Z,5.47
2018-07-09T08:00:55.630Z,4.90
2018-07-09T08:03:23.449Z,6.00
2018-07-09T08:05:51.414Z,5.70
2018-07-09T08:08:19.302Z,4.70
2018-07-09T08:10:47.246Z,4.77
2018-07-09T08:13:27.992Z,5.10
2018-07-09T08:15:43.045Z,4.43
2018-07-09T08:18:10.944Z,3.97
2018-07-09T08:20:39.186Z,4.73
2018-07-09T08:23:07.446Z,4.90
2018-07-09T08:25:35.677Z,4.73
2018-07-09T08:28:03.489Z,3.90
2018-07-09T08:30:31.306Z,3.40
2018-07-09T08:32:59.204Z,3.23
2018-07-09T08:35:27.601Z,4.10
2018-07-09T08:37:55.466Z,3.43
2018-07-09T08:40:23.347Z,3.40
2018-07-09T08:42:51.246Z,4.03
2018-07-09T08:45:19.119Z,3.20
2018-07-09T08:47:46.940Z,3.43
2018-07-09T08:50:14.854Z,2.80
2018-07-09T08:52:42.769Z,3.33
2018-07-09T08:55:11.115Z,2.93
2018-07-09T08:57:39.021Z,3.90
2018-07-09T09:00:06.921Z,2.80
2018-07-09T09:02:34.850Z,3.47
2018-07-09T09:05:02.695Z,3.13
2018-07-09T09:07:30.514Z,2.93
2018-07-09T09:09:58.399Z,2.70
2018-07-09T09:12:26.315Z,3.40
2018-07-09T09:14:54.122Z,2.90
2018-07-09T09:17:22.034Z,3.10
2018-07-09T09:19:49.861Z,2.97
2018-07-09T09:22:17.714Z,3.00
2018-07-09T09:24:45.835Z,2.63
2018-07-09T09:27:14.301Z,2.87
2018-07-09T09:29:42.161Z,2.83
2018-07-09T09:32:10.070Z,3.00
2018-07-09T09:34:37.906Z,3.20
2018-07-09T09:37:05.879Z,3.10
2018-07-09T09:39:35.173Z,3.10
2018-07-09T09:42:03.163Z,3.90
2018-07-09T09:44:31.006Z,3.60
2018-07-09T09:46:58.894Z,4.20
2018-07-09T09:49:27.211Z,3.17
2018-07-09T09:51:55.006Z,3.07
2018-07-09T09:54:22.863Z,3.10
2018-07-09T09:56:51.221Z,2.57
2018-07-09T09:59:19.110Z,3.00
2018-07-09T10:01:46.909Z,3.37
2018-07-09T10:04:14.690Z,3.00
2018-07-09T10:06:42.656Z,2.93
2018-07-09T10:09:10.529Z,3.13
2018-07-09T10:11:38.814Z,3.10
2018-07-09T10:14:06.996Z,3.20
2018-07-09T10:16:34.889Z,2.90
2018-07-09T10:19:02.798Z,2.80
2018-07-09T10:21:30.673Z,2.77
2018-07-09T10:23:58.570Z,2.73
2018-07-09T10:26:26.436Z,3.07
2018-07-09T10:28:54.317Z,2.60
2018-07-09T10:31:22.193Z,2.37
2018-07-09T10:33:50.080Z,3.43
2018-07-09T10:36:18.036Z,2.23
2018-07-09T10:38:45.916Z,2.67
2018-07-09T10:41:13.781Z,2.60
2018-07-09T10:43:41.667Z,3.00
2018-07-09T10:46:09.593Z,2.40
2018-07-09T10:48:37.459Z,2.83
2018-07-09T10:51:05.453Z,2.77
2018-07-09T10:53:33.303Z,2.80
2018-07-09T10:56:01.218Z,2.30
2018-07-09T10:58:29.103Z,2.40
2018-07-09T11:00:57.004Z,3.13
2018-07-09T11:03:24.880Z,3.27
2018-07-09T11:05:53.129Z,2.90
2018-07-09T11:08:20.990Z,2.97
2018-07-09T11:10:48.870Z,3.03
2018-07-09T11:13:16.828Z,3.03
2018-07-09T11:15:44.731Z,3.30
2018-07-09T11:18:12.935Z,2.80
2018-07-09T11:20:40.857Z,2.60
2018-07-09T11:23:08.721Z,2.77
2018-07-09T11:25:36.554Z,3.00
2018-07-09T11:28:04.541Z,2.90
2018-07-09T11:30:32.429Z,2.70
2018-07-09T11:33:00.333Z,2.65
2018-07-09T11:35:28.207Z,2.63
2018-07-09T11:37:56.119Z,2.70
2018-07-09T11:40:23.972Z,2.70
2018-07-09T11:42:51.830Z,2.47
2018-07-09T11:45:19.702Z,3.47
2018-07-09T11:47:47.521Z,4.53
2018-07-09T11:50:15.404Z,2.90
2018-07-09T11:52:43.318Z,2.93
2018-07-09T11:55:11.214Z,2.87
2018-07-09T11:57:39.103Z,2.70
2018-07-09T12:00:07.155Z,2.53
2018-07-09T12:02:35.100Z,2.90
2018-07-09T12:05:03.075Z,2.83
2018-07-09T12:07:30.963Z,3.10
2018-07-09T12:09:59.214Z,3.00
2018-07-09T12:12:27.161Z,2.70
2018-07-09T12:14:55.189Z,2.73
2018-07-09T12:17:23.061Z,2.53
2018-07-09T12:19:50.924Z,3.00
2018-07-09T12:22:19.266Z,2.63
2018-07-09T12:24:47.146Z,2.60
2018-07-09T12:27:15.058Z,2.50
2018-07-09T12:29:42.916Z,2.60
2018-07-09T12:32:10.804Z,2.50
2018-07-09T12:34:38.827Z,2.57
2018-07-09T12:37:06.749Z,2.53
2018-07-09T12:39:34.619Z,2.40
2018-07-09T12:42:02.476Z,2.60
2018-07-09T12:44:30.387Z,2.40
2018-07-09T12:46:58.259Z,2.52
2018-07-09T12:49:27.346Z,2.77
2018-07-09T12:51:55.324Z,3.10
2018-07-09T12:54:23.185Z,2.63
2018-07-09T12:56:51.025Z,2.30
2018-07-09T12:59:18.913Z,2.87
2018-07-09T13:01:46.838Z,3.20
2018-07-09T13:04:14.706Z,3.23
2018-07-09T13:06:43.741Z,2.90
2018-07-09T13:09:11.711Z,2.40
2018-07-09T13:11:39.991Z,2.63
2018-07-09T13:14:07.994Z,3.20
2018-07-09T13:16:35.881Z,2.70
2018-07-09T13:19:03.804Z,2.37
2018-07-09T13:21:31.715Z,2.73
2018-07-09T13:23:59.669Z,2.60
2018-07-09T13:26:27.481Z,2.67
2018-07-09T13:28:55.384Z,2.40
2018-07-09T13:31:23.388Z,2.97
2018-07-09T13:33:51.407Z,2.73
2018-07-09T13:36:19.222Z,2.83
2018-07-09T13:38:47.393Z,2.70
2018-07-09T13:41:15.241Z,2.70
2018-07-09T13:43:43.283Z,2.63
2018-07-09T13:46:11.206Z,2.50
2018-07-09T13:48:39.158Z,2.30
2018-07-09T13:51:07.049Z,2.67
2018-07-09T13:53:34.953Z,2.60
2018-07-09T13:56:02.822Z,2.50
2018-07-09T13:58:30.882Z,2.57
2018-07-09T14:00:58.758Z,2.27
2018-07-09T14:03:26.650Z,2.40
2018-07-09T14:05:54.673Z,2.57
2018-07-09T14:08:22.454Z,2.97
2018-07-09T14:10:50.315Z,3.10
2018-07-09T14:13:18.164Z,3.00
2018-07-09T14:15:46.025Z,2.90
2018-07-09T14:18:13.935Z,2.93
2018-07-09T14:20:43.828Z,3.07
2018-07-09T14:23:14.406Z,3.60
2018-07-09T14:25:42.525Z,3.50
2018-07-09T14:28:10.420Z,3.80
2018-07-09T14:30:38.367Z,3.87
2018-07-09T14:33:06.531Z,3.63
2018-07-09T14:35:34.567Z,3.47
2018-07-09T14:38:02.370Z,4.03
2018-07-09T14:40:30.237Z,3.40
2018-07-09T14:42:58.154Z,5.00
2018-07-09T14:45:26.022Z,3.80
2018-07-09T14:47:53.851Z,4.17
2018-07-09T14:50:21.750Z,3.77
2018-07-09T14:52:49.666Z,4.20
2018-07-09T14:55:17.593Z,3.50
2018-07-09T14:57:45.418Z,3.50
2018-07-09T15:00:13.304Z,3.30
2018-07-09T15:02:41.202Z,3.70
2018-07-09T15:05:09.097Z,3.10
2018-07-09T15:07:36.997Z,3.20
2018-07-09T15:10:04.972Z,2.80
2018-07-09T15:12:32.834Z,3.23
2018-07-09T15:15:00.767Z,2.80
2018-07-09T15:17:28.629Z,2.87
2018-07-09T15:19:56.485Z,2.87
2018-07-09T15:22:24.331Z,3.10
2018-07-09T15:24:52.182Z,2.83
2018-07-09T15:27:19.973Z,2.83
2018-07-09T15:29:47.884Z,2.53
2018-07-09T15:32:17.996Z,2.93
2018-07-09T15:34:45.800Z,2.70
2018-07-09T15:37:13.704Z,3.57
2018-07-09T15:39:41.938Z,3.70
2018-07-09T15:42:09.804Z,4.30
2018-07-09T15:44:37.591Z,3.10
2018-07-09T15:47:05.542Z,2.83
2018-07-09T15:49:33.546Z,3.13
2018-07-09T15:52:01.354Z,2.93
2018-07-09T15:54:29.187Z,2.60
2018-07-09T15:56:57.066Z,2.40
2018-07-09T15:59:24.989Z,2.43
2018-07-09T16:01:52.797Z,2.40
2018-07-09T16:04:20.656Z,3.07
2018-07-09T16:06:48.515Z,2.17
2018-07-09T16:09:16.453Z,2.20
2018-07-09T16:11:44.387Z,2.20
2018-07-09T16:14:12.165Z,2.40
2018-07-09T16:16:40.109Z,2.20
2018-07-09T16:19:07.926Z,2.60
2018-07-09T16:21:35.710Z,2.40
2018-07-09T16:24:03.688Z,2.35
2018-07-09T16:26:31.470Z,2.30
2018-07-09T16:28:59.274Z,2.20
2018-07-09T16:31:27.154Z,3.07
2018-07-09T16:33:54.953Z,2.10
2018-07-09T16:36:22.822Z,2.60
2018-07-09T16:38:51.493Z,2.43
2018-07-09T16:41:19.383Z,2.10
2018-07-09T16:43:47.175Z,8.90
2018-07-09T16:46:14.961Z,4.37
2018-07-09T16:48:42.759Z,2.73
2018-07-09T16:51:10.581Z,3.70
2018-07-09T16:53:38.485Z,2.40
2018-07-09T16:56:06.682Z,2.30
2018-07-09T16:58:34.530Z,2.27
2018-07-09T17:01:02.446Z,2.20
2018-07-09T17:03:30.698Z,2.20
2018-07-09T17:05:58.615Z,2.27
2018-07-09T17:08:26.427Z,2.00
2018-07-09T17:10:54.205Z,2.00
2018-07-09T17:13:21.996Z,2.30
2018-07-09T17:15:49.799Z,2.57
2018-07-09T17:18:17.584Z,2.40
2018-07-09T17:20:45.403Z,2.17
2018-07-09T17:23:13.175Z,2.50
2018-07-09T17:25:41.062Z,2.47
2018-07-09T17:28:08.862Z,2.60
2018-07-09T17:30:36.680Z,2.00
2018-07-09T17:33:04.545Z,2.60
2018-07-09T17:35:32.349Z,2.27
2018-07-09T17:38:00.172Z,2.50
2018-07-09T17:40:27.982Z,2.67
2018-07-09T17:42:55.765Z,4.10
2018-07-09T17:45:23.606Z,2.87
2018-07-09T17:47:52.331Z,2.45
2018-07-09T17:50:20.226Z,3.77
2018-07-09T17:52:48.311Z,2.50
2018-07-09T17:55:16.179Z,9.47
2018-07-09T17:57:44.005Z,2.80
2018-07-09T18:00:11.825Z,2.80
2018-07-09T18:02:39.669Z,3.03
2018-07-09T18:05:07.547Z,2.90
2018-07-09T18:07:35.334Z,3.27
2018-07-09T18:10:03.257Z,2.80
2018-07-09T18:12:31.372Z,2.90
2018-07-09T18:14:59.150Z,2.67
2018-07-09T18:17:26.969Z,3.20
2018-07-09T18:19:54.801Z,2.77
2018-07-09T18:22:22.710Z,3.27
2018-07-09T18:24:50.477Z,2.67
2018-07-09T18:27:18.298Z,3.57
2018-07-09T18:29:46.501Z,3.73
2018-07-09T18:32:14.403Z,3.80
2018-07-09T18:34:42.408Z,3.10
2018-07-09T18:37:10.187Z,3.43
2018-07-09T18:39:38.015Z,2.80
2018-07-09T18:42:06.138Z,2.93
2018-07-09T18:44:34.039Z,3.20
2018-07-09T18:47:02.260Z,3.10
2018-07-09T18:49:30.177Z,3.27
2018-07-09T18:51:57.998Z,3.37
2018-07-09T18:54:25.807Z,3.27
2018-07-09T18:56:53.976Z,3.63
2018-07-09T18:59:21.945Z,3.20
2018-07-09T19:01:49.822Z,3.60
2018-07-09T19:04:17.696Z,3.93
2018-07-09T19:06:49.204Z,4.30
2018-07-09T19:09:17.134Z,4.47
2018-07-09T19:11:45.042Z,4.50
2018-07-09T19:14:13.051Z,4.90
2018-07-09T19:16:52.493Z,5.10
2018-07-09T19:19:31.702Z,4.57
2018-07-09T19:22:00.841Z,5.20
2018-07-09T19:24:27.853Z,5.47
2018-07-09T19:26:54.861Z,5.03
2018-07-09T19:29:21.521Z,5.07
2018-07-09T19:31:48.125Z,5.03
2018-07-09T19:34:14.722Z,5.03
2018-07-09T19:36:41.448Z,5.60
2018-07-09T19:39:08.637Z,4.73
2018-07-09T19:41:35.293Z,5.20
2018-07-09T19:44:01.943Z,4.70
2018-07-09T19:46:28.562Z,5.03
2018-07-09T19:48:55.445Z,4.73
2018-07-09T19:51:22.303Z,12.33
2018-07-09T19:53:48.848Z,5.43
2018-07-09T19:56:15.474Z,5.10
2018-07-09T19:58:42.312Z,5.73
2018-07-09T20:01:08.870Z,5.47
2018-07-09T20:03:35.485Z,6.33
2018-07-09T20:06:02.063Z,6.60
2018-07-09T20:08:34.276Z,6.40
2018-07-09T20:11:06.371Z,6.27
2018-07-09T20:14:03.484Z,6.70
2018-07-09T20:16:35.479Z,7.20
2018-07-09T20:19:02.376Z,7.20
2018-07-09T20:21:29.654Z,6.57
2018-07-09T20:23:56.539Z,6.60
2018-07-09T20:26:23.094Z,7.00
2018-07-09T20:28:49.798Z,7.77
2018-07-09T20:31:16.417Z,7.20
2018-07-09T20:33:42.970Z,7.47
2018-07-09T20:36:09.661Z,7.20
2018-07-09T20:38:36.394Z,8.07
2018-07-09T20:41:02.998Z,7.73
2018-07-09T20:43:29.615Z,8.10
2018-07-09T20:45:56.231Z,7.77
2018-07-09T20:48:22.866Z,7.60
2018-07-09T20:50:49.490Z,7.37
2018-07-09T20:53:16.151Z,8.27
2018-07-09T20:55:42.777Z,7.90
2018-07-09T20:58:09.525Z,8.60
2018-07-09T21:00:36.168Z,7.83
2018-07-09T21:03:02.867Z,7.93
2018-07-09T21:05:29.401Z,7.67
2018-07-09T21:07:55.986Z,7.20
2018-07-09T21:10:22.570Z,8.20
2018-07-09T21:12:57.009Z,7.17
2018-07-09T21:15:24.945Z,8.87
2018-07-09T21:17:51.446Z,8.80
2018-07-09T21:20:18.704Z,8.13
2018-07-09T21:22:45.617Z,9.03
2018-07-09T21:25:12.467Z,8.57
2018-07-09T21:27:39.328Z,9.30
2018-07-09T21:30:05.954Z,9.47
2018-07-09T21:32:32.497Z,7.43
2018-07-09T21:34:59.025Z,7.80
2018-07-09T21:37:25.672Z,7.30
2018-07-09T21:39:52.434Z,6.97
2018-07-09T21:42:18.995Z,8.80
2018-07-09T21:44:45.590Z,6.23
2018-07-09T21:47:12.159Z,6.53
2018-07-09T21:49:38.694Z,6.30
2018-07-09T21:52:05.274Z,6.50
2018-07-09T21:54:31.805Z,7.37
2018-07-09T21:56:58.330Z,6.40
2018-07-09T21:59:24.857Z,6.40
2018-07-09T22:01:51.386Z,6.63
2018-07-09T22:04:18.157Z,6.20
2018-07-09T22:06:44.688Z,7.00
2018-07-09T22:09:11.218Z,7.37
2018-07-09T22:11:37.814Z,6.53
2018-07-09T22:14:04.441Z,6.97
2018-07-09T22:16:30.970Z,6.10
2018-07-09T22:18:58.967Z,7.30
2018-07-09T22:21:25.493Z,6.53
2018-07-09T22:23:52.026Z,9.13
2018-07-09T22:26:18.564Z,7.43
2018-07-09T22:28:45.493Z,6.00
2018-07-09T22:31:13.278Z,6.43
2018-07-09T22:33:41.062Z,6.42
2018-07-09T22:36:08.881Z,6.80
2018-07-09T22:38:36.758Z,6.80
2018-07-09T22:41:04.526Z,7.77
2018-07-09T22:43:43.561Z,7.77
2018-07-09T22:46:11.323Z,6.77
2018-07-09T22:48:39.130Z,7.57
2018-07-09T22:51:07.040Z,7.87
2018-07-09T22:53:34.767Z,8.20
2018-07-09T22:56:10.319Z,9.53
2018-07-09T22:58:39.609Z,8.90
2018-07-09T23:01:07.808Z,9.37
2018-07-09T23:03:35.672Z,9.30
2018-07-09T23:06:03.641Z,9.27
2018-07-09T23:08:31.536Z,9.37
2018-07-09T23:11:35.678Z,8.40
2018-07-09T23:14:45.790Z,8.60
2018-07-09T23:17:24.587Z,8.33
2018-07-09T23:20:35.359Z,7.83
2018-07-09T23:23:01.945Z,8.10
2018-07-09T23:25:28.543Z,7.87
2018-07-09T23:27:55.167Z,8.30
2018-07-09T23:30:21.794Z,8.43
2018-07-09T23:32:48.430Z,8.20
2018-07-09T23:35:15.073Z,7.93
2018-07-09T23:37:43.086Z,8.00
2018-07-09T23:40:09.673Z,8.73
2018-07-09T23:42:36.313Z,9.07
2018-07-09T23:45:02.919Z,8.50
2018-07-09T23:47:29.538Z,9.50
2018-07-09T23:49:56.158Z,11.00
2018-07-09T23:52:22.786Z,8.80
2018-07-09T23:54:49.780Z,9.23
2018-07-09T23:57:29.252Z,10.10
